Time;durP1;ratioP1;P1;durP2;ratioP2;P2;SDS_P1;SDS_P2;PMS_P1;PMS_P2;Temp;Humidity;BMP_temperature;BMP_pressure;BME280_temperature;BME280_humidity;BME280_pressure;Samples;Min_cycle;Max_cycle;Signal;HPM_P1;HPM_P2
2023/09/19 00:01:00;;;;;;;13.28;11.50;;;;;;;19.31;72.99;99658.59;1786491;80;25543;-70
2023/09/19 00:03:28;;;;;;;16.48;12.78;;;;;;;19.29;73.15;99658.75;1786551;80;25457;-70
2023/09/19 00:05:59;;;;;;;17.45;12.60;;;;;;;19.25;73.24;99661.48;1786501;80;27529;-70
2023/09/19 00:08:27;;;;;;;19.40;12.40;;;;;;;19.25;73.21;99655.22;1786425;80;25527;-70
2023/09/19 00:10:56;;;;;;;16.20;12.45;;;;;;;19.20;73.53;99654.98;1786462;80;25493;-70
2023/09/19 00:13:24;;;;;;;14.30;11.95;;;;;;;19.16;73.88;99654.97;1786517;80;25974;-70
2023/09/19 00:15:52;;;;;;;16.82;12.35;;;;;;;19.11;73.87;99656.70;1786688;80;25389;-69
2023/09/19 00:18:21;;;;;;;14.07;12.10;;;;;;;19.08;74.12;99656.09;1786615;80;27983;-71
2023/09/19 00:20:48;;;;;;;16.05;11.97;;;;;;;19.04;74.30;99655.30;1786545;80;25601;-71
2023/09/19 00:23:16;;;;;;;20.90;12.47;;;;;;;19.01;74.40;99656.05;1786727;80;25504;-73
2023/09/19 00:25:45;;;;;;;14.38;12.58;;;;;;;18.99;74.53;99657.02;1786695;80;25581;-74
2023/09/19 00:28:12;;;;;;;14.58;12.55;;;;;;;18.98;74.65;99647.22;1786774;80;25459;-73
2023/09/19 00:30:44;;;;;;;15.90;12.70;;;;;;;18.95;74.90;99648.78;1786737;80;27536;-72
2023/09/19 00:33:16;;;;;;;16.30;12.65;;;;;;;18.93;75.00;99655.20;1786594;80;25766;-72
2023/09/19 00:35:49;;;;;;;17.77;12.73;;;;;;;18.91;74.97;99657.55;1786476;80;25619;-72
2023/09/19 00:38:17;;;;;;;18.40;13.15;;;;;;;18.88;75.18;99654.19;1785512;80;25763;-71
2023/09/19 00:40:47;;;;;;;14.55;12.25;;;;;;;18.86;75.53;99652.42;1786648;80;25512;-72
2023/09/19 00:43:15;;;;;;;17.00;12.58;;;;;;;18.87;75.56;99642.27;1786714;80;28064;-71
2023/09/19 00:45:47;;;;;;;15.18;12.68;;;;;;;18.87;75.73;99653.23;1786527;80;25630;-71
2023/09/19 00:48:16;;;;;;;19.25;13.28;;;;;;;18.85;75.57;99644.79;1786618;80;25556;-71
2023/09/19 00:50:47;;;;;;;19.45;12.75;;;;;;;18.84;75.80;99645.17;1786663;80;25497;-71
2023/09/19 00:53:22;;;;;;;16.37;13.38;;;;;;;18.82;75.79;99644.73;1786678;80;25613;-71
2023/09/19 00:55:52;;;;;;;15.40;12.73;;;;;;;18.80;75.83;99644.34;1786748;80;28003;-71
2023/09/19 00:58:20;;;;;;;18.87;13.68;;;;;;;18.78;75.85;99639.23;1762199;80;25488;-72
2023/09/19 01:00:50;;;;;;;16.05;12.93;;;;;;;18.77;75.99;99639.02;1786715;80;25545;-71
2023/09/19 01:03:18;;;;;;;18.12;13.20;;;;;;;18.75;76.03;99629.63;1786580;80;25681;-71
2023/09/19 01:05:45;;;;;;;15.90;12.58;;;;;;;18.74;76.44;99636.27;1786780;80;25599;-71
2023/09/19 01:08:11;;;;;;;20.25;13.10;;;;;;;18.73;76.52;99632.75;1786595;80;27458;-71
2023/09/19 01:10:44;;;;;;;18.57;13.18;;;;;;;18.71;76.49;99626.05;1786492;80;25367;-71
2023/09/19 01:13:25;;;;;;;19.25;13.53;;;;;;;18.69;76.77;99616.07;1786616;80;25420;-71
2023/09/19 01:16:06;;;;;;;18.60;13.00;;;;;;;18.68;77.09;99623.52;1786590;80;26056;-73
2023/09/19 01:18:50;;;;;;;15.18;13.08;;;;;;;18.64;77.00;99632.27;1786423;80;25536;-73
2023/09/19 01:21:57;;;;;;;17.32;12.45;;;;;;;18.60;76.94;99619.91;1771048;80;27461;-72
2023/09/19 01:24:51;;;;;;;16.73;13.00;;;;;;;18.57;77.09;99612.45;1786566;80;25464;-72
2023/09/19 01:27:32;;;;;;;18.80;13.93;;;;;;;18.54;77.46;99615.98;1786650;80;25540;-72
2023/09/19 01:30:15;;;;;;;15.68;13.60;;;;;;;18.52;77.33;99612.03;1785073;80;26009;-73
2023/09/19 01:32:46;;;;;;;14.63;12.30;;;;;;;18.48;77.58;99599.68;1786682;80;25454;-73
2023/09/19 01:35:12;;;;;;;18.50;13.55;;;;;;;18.47;77.71;99604.94;1786725;80;27467;-71
2023/09/19 01:37:43;;;;;;;16.87;12.93;;;;;;;18.44;77.82;99602.39;1786519;80;25839;-72
2023/09/19 01:40:16;;;;;;;18.42;13.72;;;;;;;18.42;77.72;99598.45;1785960;80;25496;-72
2023/09/19 01:43:00;;;;;;;17.32;13.62;;;;;;;18.43;78.23;99593.19;1786599;80;25537;-75
2023/09/19 01:46:00;;;;;;;17.85;13.28;;;;;;;18.43;78.21;99595.92;1762356;80;25573;-76
2023/09/19 01:49:03;;;;;;;15.72;13.22;;;;;;;18.41;78.11;99590.05;1786556;80;27593;-75
2023/09/19 01:51:40;;;;;;;16.35;12.82;;;;;;;18.43;78.34;99594.56;1779422;80;25532;-73
2023/09/19 01:54:13;;;;;;;16.32;12.65;;;;;;;18.42;78.22;99594.34;1779094;80;25176;-73
2023/09/19 01:56:54;;;;;;;15.70;12.95;;;;;;;18.41;78.63;99586.72;1777996;80;26065;-73
2023/09/19 01:59:30;;;;;;;20.97;12.90;;;;;;;18.38;78.46;99585.33;1776836;80;25521;-74
2023/09/19 02:01:59;;;;;;;18.23;14.03;;;;;;;18.37;78.63;99583.74;1778078;80;27385;-73
2023/09/19 02:04:27;;;;;;;16.62;13.32;;;;;;;18.35;78.43;99589.59;1778037;80;25595;-74
2023/09/19 02:06:54;;;;;;;16.75;12.88;;;;;;;18.35;78.49;99587.45;1778258;80;25529;-74
2023/09/19 02:09:20;;;;;;;17.90;14.35;;;;;;;18.35;78.78;99581.97;1777917;80;26208;-74
2023/09/19 02:11:46;;;;;;;18.70;13.18;;;;;;;18.34;78.63;99586.67;1778011;80;25416;-74
2023/09/19 02:14:14;;;;;;;16.77;13.05;;;;;;;18.34;78.71;99579.83;1777978;80;28068;-73
2023/09/19 02:16:41;;;;;;;19.80;13.27;;;;;;;18.35;78.78;99583.34;1778175;80;25565;-75
2023/09/19 02:19:09;;;;;;;17.05;13.88;;;;;;;18.34;78.83;99582.56;1778007;80;25602;-74
2023/09/19 02:21:35;;;;;;;15.15;12.80;;;;;;;18.34;78.92;99582.56;1777950;80;25479;-74
2023/09/19 02:24:03;;;;;;;16.37;13.20;;;;;;;18.34;78.91;99581.75;1778012;80;25560;-75
2023/09/19 02:26:29;;;;;;;16.85;12.53;;;;;;;18.32;79.09;99571.77;1778433;80;28186;-75
2023/09/19 02:28:56;;;;;;;17.55;13.08;;;;;;;18.29;79.09;99571.96;1778829;80;25180;-75
2023/09/19 02:31:22;;;;;;;17.20;13.22;;;;;;;18.29;79.15;99575.48;1778702;80;25572;-75
2023/09/19 02:33:48;;;;;;;18.10;13.25;;;;;;;18.29;79.34;99569.22;1778966;80;25485;-75
2023/09/19 02:36:16;;;;;;;19.15;13.58;;;;;;;18.28;79.35;99568.42;1778009;80;25525;-76
2023/09/19 02:38:42;;;;;;;16.62;12.88;;;;;;;18.28;79.51;99564.31;1777429;80;27458;-75
2023/09/19 02:41:08;;;;;;;18.23;13.32;;;;;;;18.26;79.78;99555.70;1777898;80;25548;-74
2023/09/19 02:43:35;;;;;;;15.28;13.32;;;;;;;18.24;79.63;99562.73;1777971;80;25586;-73
2023/09/19 02:46:03;;;;;;;18.05;12.80;;;;;;;18.23;79.52;99551.56;1775327;80;25466;-73
2023/09/19 02:48:31;;;;;;;17.05;13.32;;;;;;;18.23;80.42;99551.56;1777904;79;25461;-73
2023/09/19 02:50:58;;;;;;;18.23;13.13;;;;;;;18.20;79.81;99541.38;1777996;80;28011;-73
2023/09/19 02:53:24;;;;;;;17.75;13.08;;;;;;;18.21;79.82;99530.05;1777883;80;25470;-73
2023/09/19 02:55:54;;;;;;;19.55;13.05;;;;;;;18.20;79.74;99533.97;1777957;80;25482;-74
2023/09/19 02:58:19;;;;;;;18.45;12.70;;;;;;;18.19;79.83;99538.45;1777273;80;25549;-75
2023/09/19 03:00:47;;;;;;;15.18;12.80;;;;;;;18.18;80.06;99540.97;1777958;80;25442;-75
2023/09/19 03:03:15;;;;;;;15.13;13.03;;;;;;;18.15;80.23;99532.95;1778067;80;27509;-73
2023/09/19 03:05:47;;;;;;;20.50;13.35;;;;;;;18.15;80.24;99541.16;1777898;80;25417;-76
2023/09/19 03:08:16;;;;;;;18.07;12.90;;;;;;;18.13;80.16;99539.95;1778076;80;25382;-76
2023/09/19 03:10:45;;;;;;;18.75;12.75;;;;;;;18.11;80.28;99530.75;1778090;80;25966;-76
2023/09/19 03:13:11;;;;;;;16.20;13.00;;;;;;;18.11;80.39;99528.02;1777530;80;25509;-77
2023/09/19 03:15:50;;;;;;;15.80;12.75;;;;;;;18.13;80.41;99533.89;1778106;80;27542;-77
2023/09/19 03:18:17;;;;;;;15.35;12.45;;;;;;;18.11;80.67;99533.48;1777983;80;25394;-77
2023/09/19 03:20:44;;;;;;;21.27;12.88;;;;;;;18.10;80.96;99534.08;1777996;80;25370;-77
2023/09/19 03:23:14;;;;;;;19.10;14.78;;;;;;;18.07;80.59;99521.14;1777939;80;25484;-77
2023/09/19 03:25:40;;;;;;;;;;;;;;;18.05;80.81;99516.64;1780794;80;25384;-76
2023/09/19 03:28:07;;;;;;;35.65;32.03;;;;;;;18.05;80.84;99511.16;1777987;80;27653;-76
2023/09/19 03:30:34;;;;;;;77.97;72.27;;;;;;;18.00;80.86;99494.32;1777908;80;25683;-76
2023/09/19 03:33:01;;;;;;;81.20;75.40;;;;;;;17.98;80.81;99497.44;1777983;80;25432;-76
2023/09/19 03:35:27;;;;;;;81.35;75.52;;;;;;;17.98;80.73;99504.84;1778017;80;25450;-76
2023/09/19 03:37:54;;;;;;;78.07;72.42;;;;;;;17.97;81.00;99512.86;1778359;80;25133;-78
2023/09/19 03:40:21;;;;;;;18.12;13.32;;;;;;;17.97;80.73;99513.63;1778114;80;27446;-74
2023/09/19 03:42:48;;;;;;;17.12;13.10;;;;;;;18.02;80.63;99524.82;1777876;80;25830;-74
2023/09/19 03:45:15;;;;;;;19.73;13.15;;;;;;;18.00;80.85;99519.72;1777951;80;25621;-74
2023/09/19 03:47:42;;;;;;;15.53;13.25;;;;;;;18.00;80.54;99520.31;1777899;80;25529;-75
2023/09/19 03:50:10;;;;;;;15.60;12.58;;;;;;;17.98;80.92;99513.05;1782990;80;25423;-72
2023/09/19 03:52:37;;;;;;;16.85;13.40;;;;;;;17.96;81.30;99511.27;1786894;80;27462;-73
2023/09/19 03:55:04;;;;;;;14.63;13.00;;;;;;;17.92;80.81;99512.02;1786659;80;25665;-73
2023/09/19 03:57:34;;;;;;;16.12;12.73;;;;;;;17.89;81.22;99504.59;1786807;80;25389;-73
2023/09/19 04:00:01;;;;;;;16.37;13.38;;;;;;;17.86;81.14;99503.14;1786728;80;25614;-73
2023/09/19 04:02:32;;;;;;;16.15;13.25;;;;;;;17.85;81.25;99502.36;1786796;80;25535;-74
2023/09/19 04:04:55;;;;;;;16.50;12.55;;;;;;;17.83;81.38;99501.95;1785765;79;28025;-74
2023/09/19 04:07:22;;;;;;;16.97;13.38;;;;;;;17.81;81.20;99507.02;1786560;80;25434;-74
2023/09/19 04:09:49;;;;;;;18.77;13.50;;;;;;;17.81;81.60;99506.22;1786653;80;25541;-75
2023/09/19 04:12:20;;;;;;;17.48;13.50;;;;;;;17.79;81.80;99505.22;1786630;80;25465;-73
2023/09/19 04:14:43;;;;;;;18.25;13.85;;;;;;;17.76;81.81;99508.73;1785505;80;25407;-74
2023/09/19 04:17:10;;;;;;;16.82;13.30;;;;;;;17.74;81.91;99502.83;1786748;80;28095;-73
2023/09/19 04:19:38;;;;;;;19.15;12.47;;;;;;;17.72;81.89;99503.80;1786586;80;25398;-74
2023/09/19 04:22:04;;;;;;;14.63;12.82;;;;;;;17.71;82.04;99497.55;1786753;80;25564;-65
2023/09/19 04:24:32;;;;;;;15.70;13.10;;;;;;;17.70;82.29;99492.45;1786585;80;26093;-66
2023/09/19 04:26:59;;;;;;;17.67;12.85;;;;;;;17.69;82.83;99492.23;1786611;80;25598;-67
2023/09/19 04:29:29;;;;;;;17.07;12.80;;;;;;;17.67;82.54;99482.27;1786605;80;27525;-68
2023/09/19 04:31:54;;;;;;;18.27;13.08;;;;;;;17.66;83.04;99480.70;1785819;80;25588;-66
2023/09/19 04:34:20;;;;;;;19.82;13.05;;;;;;;17.67;82.59;99478.97;1786623;80;25369;-64
2023/09/19 04:36:47;;;;;;;18.45;12.50;;;;;;;17.68;82.72;99476.42;1786557;80;26054;-66
2023/09/19 04:39:13;;;;;;;17.30;13.10;;;;;;;17.71;82.79;99476.27;1786616;80;25396;-69
2023/09/19 04:41:41;;;;;;;16.67;13.10;;;;;;;17.73;82.98;99471.20;1786585;80;27500;-64
2023/09/19 04:44:08;;;;;;;16.40;12.77;;;;;;;17.76;83.03;99461.44;1786807;80;26016;-64
2023/09/19 04:46:36;;;;;;;14.55;12.68;;;;;;;17.77;82.83;99461.65;1786641;80;25443;-63
2023/09/19 04:49:02;;;;;;;19.15;12.58;;;;;;;17.83;83.11;99468.36;1786517;80;25547;-63
2023/09/19 04:51:33;;;;;;;16.93;12.55;;;;;;;17.85;82.91;99466.02;1786597;80;25455;-64
2023/09/19 04:53:56;;;;;;;14.70;12.50;;;;;;;17.88;82.87;99470.77;1785722;80;27622;-65
2023/09/19 04:56:24;;;;;;;16.80;12.68;;;;;;;17.91;82.66;99464.52;1786515;80;25442;-66
2023/09/19 04:58:52;;;;;;;;;;;;;;;17.95;82.76;99468.68;1789276;80;25643;-65
2023/09/19 05:01:18;;;;;;;15.23;12.43;;;;;;;17.98;82.94;99464.60;1786558;80;26255;-65
2023/09/19 05:03:45;;;;;;;18.10;12.85;;;;;;;18.00;82.74;99461.48;1786640;80;25396;-65
2023/09/19 05:06:12;;;;;;;16.93;12.65;;;;;;;18.05;82.80;99461.91;1786564;80;27543;-66
2023/09/19 05:08:41;;;;;;;15.18;12.33;;;;;;;18.10;82.69;99460.78;1786546;80;25704;-66
2023/09/19 05:11:08;;;;;;;16.05;12.00;;;;;;;18.15;82.80;99455.52;1786570;80;25520;-66
2023/09/19 05:13:39;;;;;;;17.60;12.75;;;;;;;18.19;82.75;99454.98;1786579;80;25561;-66
2023/09/19 05:16:05;;;;;;;15.53;11.68;;;;;;;18.24;82.61;99458.72;1786742;80;25541;-66
2023/09/19 05:18:31;;;;;;;17.25;12.10;;;;;;;18.31;82.55;99459.36;1786574;80;27508;-66
2023/09/19 05:21:03;;;;;;;14.13;11.78;;;;;;;18.35;82.34;99459.56;1786534;80;25600;-66
2023/09/19 05:23:31;;;;;;;17.80;12.15;;;;;;;18.39;82.15;99454.10;1786599;80;25576;-63
2023/09/19 05:26:10;;;;;;;21.23;16.23;;;;;;;18.44;82.30;99453.77;1787557;80;25541;-80
2023/09/19 05:28:43;;;;;;;17.92;12.98;;;;;;;18.51;82.05;99454.37;1788108;80;25235;-77
2023/09/19 05:31:09;;;;;;;;;;;;;;;18.56;81.96;99458.91;1789593;80;27460;-74
2023/09/19 05:33:36;;;;;;;17.25;12.75;;;;;;;18.61;81.78;99453.08;1786525;80;25904;-66
2023/09/19 05:36:02;;;;;;;15.40;12.70;;;;;;;18.64;81.73;99452.31;1786549;80;25443;-66
2023/09/19 05:38:30;;;;;;;16.25;11.78;;;;;;;18.67;81.57;99449.38;1786420;80;25523;-64
2023/09/19 05:40:56;;;;;;;14.18;11.95;;;;;;;18.72;81.63;99455.85;1786460;80;25615;-63
2023/09/19 05:43:23;;;;;;;17.42;12.30;;;;;;;18.75;81.46;99449.61;1786563;80;29687;-64
2023/09/19 05:45:52;;;;;;;14.78;11.88;;;;;;;18.79;81.46;99458.62;1786466;80;25360;-64
2023/09/19 05:48:17;;;;;;;15.58;10.70;;;;;;;18.81;81.15;99452.20;1786570;80;25367;-65
2023/09/19 05:50:46;;;;;;;14.75;10.60;;;;;;;18.85;81.15;99453.01;1781611;80;26064;-65
2023/09/19 05:53:14;;;;;;;13.00;11.12;;;;;;;18.87;80.97;99454.59;1778218;80;25613;-63
2023/09/19 05:55:41;;;;;;;18.27;11.53;;;;;;;18.90;80.74;99455.16;1777999;80;27547;-63
2023/09/19 05:58:08;;;;;;;16.02;11.88;;;;;;;18.91;80.62;99450.67;1777875;80;25765;-64
2023/09/19 06:00:34;;;;;;;16.50;11.33;;;;;;;18.95;80.53;99446.02;1778022;80;25578;-65
2023/09/19 06:03:01;;;;;;;20.10;11.68;;;;;;;18.97;80.52;99444.26;1777960;80;25560;-64
2023/09/19 06:05:31;;;;;;;21.40;11.97;;;;;;;19.01;80.48;99436.81;1778004;80;25474;-64
2023/09/19 06:07:59;;;;;;;17.52;11.60;;;;;;;19.03;80.35;99450.34;1777955;79;28154;-64
2023/09/19 06:10:25;;;;;;;12.82;11.05;;;;;;;19.08;80.38;99451.13;1777668;80;25500;-66
2023/09/19 06:12:53;;;;;;;15.30;11.80;;;;;;;19.10;80.23;99448.19;1777898;80;25365;-65
2023/09/19 06:15:19;;;;;;;17.92;11.57;;;;;;;19.15;80.21;99453.30;1777925;80;25572;-65
2023/09/19 06:17:51;;;;;;;15.10;11.88;;;;;;;19.21;80.18;99444.91;1778006;80;25243;-65
2023/09/19 06:20:31;;;;;;;16.37;11.68;;;;;;;19.29;80.29;99444.91;1778164;80;27473;-82
2023/09/19 06:22:57;;;;;;;36.68;30.95;;;;;;;19.35;79.92;99448.85;1779534;80;25173;-85
2023/09/19 06:25:25;;;;;;;15.45;11.60;;;;;;;19.40;79.66;99447.09;1755664;80;25619;-78
2023/09/19 06:27:54;;;;;;;16.37;11.93;;;;;;;19.43;79.25;99445.52;1780540;80;25550;-83
2023/09/19 06:30:23;;;;;;;16.45;11.25;;;;;;;19.46;79.22;99459.27;1781247;80;25274;-79
2023/09/19 06:32:57;;;;;;;57.08;42.75;;;;;;;19.50;79.16;99455.15;1777084;80;27495;-76
2023/09/19 06:35:26;;;;;;;23.00;15.83;;;;;;;19.53;79.00;99458.46;1779807;80;25736;-74
2023/09/19 06:37:53;;;;;;;16.80;11.78;;;;;;;19.57;79.12;99462.78;1749387;80;25810;-69
2023/09/19 06:40:19;;;;;;;15.30;10.88;;;;;;;19.62;78.87;99468.48;1778029;80;26080;-70
2023/09/19 06:42:52;;;;;;;17.95;12.13;;;;;;;19.64;78.41;99464.75;1778010;80;25351;-71
2023/09/19 06:45:19;;;;;;;16.50;11.03;;;;;;;19.67;78.54;99470.84;1778081;80;27697;-69
2023/09/19 06:47:51;;;;;;;14.45;11.55;;;;;;;19.72;78.39;99480.05;1777962;80;25353;-70
2023/09/19 06:50:22;;;;;;;15.80;12.03;;;;;;;19.76;78.56;99486.94;1771441;79;25458;-71
2023/09/19 06:52:53;;;;;;;15.65;11.38;;;;;;;19.82;78.24;99492.25;1751991;81;25672;-70
2023/09/19 06:55:27;;;;;;;14.23;11.20;;;;;;;19.87;78.12;99497.34;1752028;81;25449;-70
2023/09/19 06:57:54;;;;;;;14.33;10.93;;;;;;;19.91;77.69;99497.34;1750148;81;28219;-71
2023/09/19 07:00:25;;;;;;;15.72;11.38;;;;;;;19.91;77.48;99500.86;1752756;81;25643;-72
2023/09/19 07:03:11;;;;;;;14.98;11.43;;;;;;;19.91;77.44;99496.75;1752838;81;25588;-71
2023/09/19 07:05:39;;;;;;;16.40;11.53;;;;;;;19.96;77.72;99496.95;1752668;81;25641;-71
2023/09/19 07:08:10;;;;;;;17.20;12.05;;;;;;;20.01;77.41;99490.30;1752088;81;25358;-71
2023/09/19 07:10:37;;;;;;;14.40;11.12;;;;;;;20.08;77.82;99499.30;1751901;81;27508;-70
2023/09/19 07:13:08;;;;;;;14.45;10.78;;;;;;;20.20;78.17;99500.09;1751891;81;25829;-76
2023/09/19 07:15:38;;;;;;;15.80;11.90;;;;;;;20.35;77.51;99492.03;1753464;81;25399;-80
2023/09/19 07:18:04;;;;;;;43.55;31.95;;;;;;;20.58;79.36;99494.92;1752988;81;25675;-78
2023/09/19 07:20:32;;;;;;;25.00;15.75;;;;;;;20.83;77.31;99488.78;1752953;81;25391;-65
2023/09/19 07:23:01;;;;;;;15.90;10.82;;;;;;;21.01;76.98;99487.92;1751918;81;27560;-65
2023/09/19 07:25:31;;;;;;;76.73;71.63;;;;;;;21.29;77.41;99495.27;1751748;81;25609;-65
2023/09/19 07:28:02;;;;;;;15.68;11.33;;;;;;;21.47;76.13;99487.53;1751614;81;25383;-64
2023/09/19 07:30:28;;;;;;;14.28;10.82;;;;;;;21.75;75.01;99501.70;1751565;81;26596;-63
2023/09/19 07:32:55;;;;;;;14.68;10.50;;;;;;;22.01;75.66;99501.69;1751518;81;25676;-64
2023/09/19 07:35:22;;;;;;;14.73;10.93;;;;;;;22.41;74.52;99506.87;1751463;81;27459;-64
2023/09/19 07:37:51;;;;;;;15.68;11.18;;;;;;;22.65;73.18;99518.85;1751433;81;25774;-63
2023/09/19 07:40:23;;;;;;;14.07;10.85;;;;;;;22.86;72.71;99517.22;1751871;81;25619;-65
2023/09/19 07:42:50;;;;;;;15.65;11.03;;;;;;;23.09;71.20;99517.97;1752039;81;27622;-64
2023/09/19 07:45:17;;;;;;;14.15;10.60;;;;;;;23.31;69.39;99525.38;1752086;81;25444;-64
2023/09/19 07:47:50;;;;;;;16.52;10.90;;;;;;;23.26;68.08;99523.69;1752054;81;27161;-63
2023/09/19 07:50:19;;;;;;;13.45;9.98;;;;;;;23.22;68.41;99518.19;1754648;79;25547;-65
2023/09/19 07:52:50;;;;;;;22.82;17.25;;;;;;;23.24;67.81;99529.61;1778517;80;25541;-72
2023/09/19 07:55:19;;;;;;;18.75;12.18;;;;;;;23.11;67.31;99521.09;1778304;80;25576;-70
2023/09/19 07:57:46;;;;;;;18.05;11.68;;;;;;;23.02;67.51;99522.75;1778397;80;25373;-70
2023/09/19 08:00:14;;;;;;;16.67;11.83;;;;;;;22.98;67.49;99528.91;1778408;80;27458;-71
2023/09/19 08:02:47;;;;;;;25.20;17.52;;;;;;;22.98;67.71;99527.53;1778660;80;25596;-73
2023/09/19 08:05:17;;;;;;;17.57;13.03;;;;;;;23.17;68.68;99528.30;1778313;80;25300;-72
2023/09/19 08:07:48;;;;;;;13.72;11.03;;;;;;;23.66;70.25;99523.91;1778488;80;25483;-70
2023/09/19 08:10:16;;;;;;;15.00;11.73;;;;;;;24.26;68.90;99522.78;1749063;80;25615;-64
2023/09/19 08:12:47;;;;;;;18.25;12.98;;;;;;;24.49;66.46;99526.14;1749618;80;27462;-66
2023/09/19 08:15:21;;;;;;;18.87;12.35;;;;;;;24.57;64.76;99527.60;1778085;80;25452;-69
2023/09/19 08:17:50;;;;;;;15.60;12.18;;;;;;;24.40;64.47;99530.84;1778249;80;25382;-69
2023/09/19 08:20:17;;;;;;;13.32;11.90;;;;;;;24.41;64.37;99530.23;1778215;80;26081;-69
2023/09/19 08:22:56;;;;;;;17.57;12.33;;;;;;;24.36;64.43;99531.48;1778468;80;25560;-68
2023/09/19 08:25:29;;;;;;;21.05;12.58;;;;;;;24.38;64.06;99533.25;1778255;80;27489;-68
2023/09/19 08:27:52;;;;;;;14.40;12.10;;;;;;;24.45;64.82;99528.20;1776817;80;25557;-71
2023/09/19 08:30:26;;;;;;;17.00;12.70;;;;;;;24.65;64.59;99525.47;1778092;80;25527;-69
2023/09/19 08:33:00;;;;;;;16.02;13.40;;;;;;;24.91;65.42;99525.19;1778032;80;26305;-69
2023/09/19 08:35:30;;;;;;;15.78;12.18;;;;;;;25.23;63.77;99536.79;1778150;80;25616;-67
2023/09/19 08:38:00;;;;;;;15.58;12.18;;;;;;;25.28;62.39;99538.47;1778066;80;27531;-66
2023/09/19 08:40:28;;;;;;;17.85;14.25;;;;;;;25.30;62.66;99542.99;1777932;80;25437;-68
2023/09/19 08:42:57;;;;;;;21.40;13.93;;;;;;;25.35;61.82;99534.77;1778094;79;25630;-67
2023/09/19 08:45:28;;;;;;;17.73;14.15;;;;;;;25.39;61.80;99536.08;1778016;80;26315;-69
2023/09/19 08:48:22;;;;;;;18.07;14.10;;;;;;;25.45;60.67;99535.75;1778212;80;25372;-67
2023/09/19 08:51:03;;;;;;;17.92;13.55;;;;;;;25.38;60.50;99533.15;1777951;80;27476;-69
2023/09/19 08:53:54;;;;;;;16.77;14.73;;;;;;;25.35;59.71;99540.30;1778005;80;25538;-68
2023/09/19 08:56:22;;;;;;;19.32;14.03;;;;;;;25.28;60.12;99537.70;1777859;80;25606;-68
2023/09/19 08:58:58;;;;;;;17.73;14.53;;;;;;;25.29;60.32;99537.89;1778161;80;25564;-67
2023/09/19 09:01:32;;;;;;;15.35;13.70;;;;;;;25.24;60.22;99533.59;1778099;80;25533;-68
2023/09/19 09:04:01;;;;;;;18.70;13.62;;;;;;;25.32;60.67;99529.50;1778100;80;28121;-69
2023/09/19 09:06:32;;;;;;;23.00;14.00;;;;;;;25.42;60.34;99528.30;1778053;80;25854;-68
2023/09/19 09:09:00;;;;;;;22.20;14.53;;;;;;;25.47;59.89;99529.17;1778050;80;25890;-65
2023/09/19 09:11:28;;;;;;;15.38;13.70;;;;;;;25.44;59.69;99532.83;1777960;80;26266;-65
2023/09/19 09:13:56;;;;;;;20.57;14.15;;;;;;;25.38;59.65;99535.30;1778185;80;25372;-68
2023/09/19 09:16:26;;;;;;;17.67;13.98;;;;;;;25.32;59.58;99541.95;1778033;80;28362;-67
2023/09/19 09:18:52;;;;;;;28.90;14.63;;;;;;;25.25;59.47;99553.73;1777895;79;27309;-67
2023/09/19 09:21:21;;;;;;;24.32;16.00;;;;;;;25.14;59.33;99550.59;1750387;80;25635;-67
2023/09/19 09:23:51;;;;;;;16.70;13.90;;;;;;;25.04;59.33;99552.20;1778332;80;26201;-68
2023/09/19 09:26:35;;;;;;;16.85;15.05;;;;;;;24.93;59.44;99558.72;1778109;80;25448;-68
2023/09/19 09:29:01;;;;;;;19.25;15.23;;;;;;;24.81;59.64;99559.36;1676424;85;27011;-67
2023/09/19 09:31:29;;;;;;;15.90;14.00;;;;;;;24.68;59.45;99565.33;1720174;83;25667;-68
2023/09/19 09:33:58;;;;;;;17.55;14.43;;;;;;;24.51;59.74;99566.56;1720317;83;25677;-69
2023/09/19 09:36:41;;;;;;;17.53;13.73;;;;;;;24.39;60.07;99567.95;1720496;83;25500;-69
2023/09/19 09:39:18;;;;;;;26.85;13.75;;;;;;;24.33;60.50;99577.14;1720423;83;25607;-69
2023/09/19 09:41:46;;;;;;;21.97;12.68;;;;;;;24.21;60.34;99579.31;1720337;83;27483;-72
2023/09/19 09:44:17;;;;;;;16.90;12.10;;;;;;;24.07;60.43;99584.28;1720236;83;25521;-67
2023/09/19 09:46:58;;;;;;;31.05;26.20;;;;;;;23.97;60.64;99581.86;1720410;83;25224;-67
2023/09/19 09:52:16;;;;;;;18.12;13.62;;;;;;;23.77;61.30;99583.90;1708599;82;25451;-67
2023/09/19 09:54:37;;;;;;;18.07;12.33;;;;;;;23.73;61.72;99585.91;1696187;83;27519;-64
2023/09/19 09:57:20;;;;;;;23.00;12.40;;;;;;;23.69;61.86;99590.71;1697593;84;25657;-64
2023/09/19 10:02:40;;;;;;;15.00;10.80;;;;;;;23.59;62.24;99595.78;1613855;88;25736;-64
2023/09/19 10:08:08;;;;;;;12.20;9.70;;;;;;;23.39;62.31;99595.63;1701407;84;28117;-65
2023/09/19 10:13:21;;;;;;;;;;;;;;;23.18;62.81;99600.81;1703933;84;25488;-63
2023/09/19 10:15:50;;;;;;;11.28;9.83;;;;;;;23.05;63.16;99615.09;1700769;84;25635;-64
2023/09/19 10:18:25;;;;;;;11.97;8.95;;;;;;;22.88;63.19;99608.59;1701460;84;25663;-64
2023/09/19 10:20:52;;;;;;;27.93;11.45;;;;;;;22.77;63.84;99623.67;1701426;84;27470;-64
2023/09/19 10:23:23;;;;;;;18.62;10.43;;;;;;;22.66;64.48;99627.31;1701301;84;25753;-63
2023/09/19 10:25:52;;;;;;;12.13;8.15;;;;;;;22.52;64.78;99635.08;1678045;84;25763;-65
2023/09/19 10:28:22;;;;;;;;;;;;;;;22.37;65.54;99642.70;1703922;84;25659;-66
2023/09/19 10:30:52;;;;;;;15.98;9.53;;;;;;;22.21;66.25;99641.00;1701536;84;25561;-66
2023/09/19 10:33:25;;;;;;;13.20;10.30;;;;;;;22.06;66.73;99660.19;1701401;84;27540;-67
2023/09/19 10:35:59;;;;;;;14.18;9.88;;;;;;;21.90;67.91;99657.31;1701377;83;25510;-65
2023/09/19 10:38:28;;;;;;;14.25;10.05;;;;;;;21.72;68.59;99646.38;1701847;83;25460;-65
2023/09/19 10:41:00;;;;;;;12.68;8.95;;;;;;;21.56;69.44;99646.08;1790093;79;25482;-64
2023/09/19 10:43:31;;;;;;;14.30;8.98;;;;;;;21.42;70.17;99643.55;1795223;79;25400;-65
2023/09/19 10:46:05;;;;;;;10.23;8.53;;;;;;;21.34;70.84;99648.09;1795231;79;27461;-65
2023/09/19 10:48:32;;;;;;;14.25;9.10;;;;;;;21.23;71.23;99648.91;1794939;78;25710;-64
2023/09/19 10:51:19;;;;;;;11.43;9.90;;;;;;;21.13;71.88;99651.67;1795129;79;25431;-64
2023/09/19 10:53:51;;;;;;;14.47;9.45;;;;;;;21.05;72.81;99650.91;1791898;79;25432;-65
2023/09/19 10:56:36;;;;;;;13.50;9.75;;;;;;;20.94;73.15;99649.53;1791888;79;25539;-65
2023/09/19 10:59:13;;;;;;;11.88;9.18;;;;;;;20.87;73.98;99652.30;1791635;78;27554;-65
2023/09/19 11:01:50;;;;;;;14.33;9.73;;;;;;;20.78;74.57;99649.18;1791346;80;25381;-65
2023/09/19 11:04:30;;;;;;;12.50;8.75;;;;;;;20.74;75.43;99640.94;1791723;79;25461;-65
2023/09/19 11:07:14;;;;;;;13.88;9.28;;;;;;;20.70;75.58;99646.45;1791660;79;25422;-65
2023/09/19 11:09:54;;;;;;;14.05;9.93;;;;;;;20.67;76.26;99642.30;1791940;80;25544;-64
2023/09/19 11:12:35;;;;;;;11.70;8.83;;;;;;;20.64;76.76;99632.12;1791801;80;27315;-65
2023/09/19 11:15:05;;;;;;;11.97;9.60;;;;;;;20.61;77.64;99632.88;1791841;79;25582;-65
2023/09/19 11:17:42;;;;;;;11.48;8.55;;;;;;;20.58;78.42;99630.30;1791812;80;25398;-64
2023/09/19 11:20:24;;;;;;;11.38;9.48;;;;;;;20.57;78.47;99626.57;1792070;80;25494;-65
2023/09/19 11:23:13;;;;;;;12.50;9.60;;;;;;;20.57;78.81;99632.06;1790799;79;25558;-65
2023/09/19 11:25:54;;;;;;;13.80;9.65;;;;;;;20.60;80.26;99629.34;1707256;83;27357;-64
2023/09/19 11:28:30;;;;;;;12.90;9.40;;;;;;;20.64;80.52;99634.86;1705430;82;25527;-63
2023/09/19 11:30:59;;;;;;;14.47;9.88;;;;;;;20.68;81.12;99639.16;1707496;84;25462;-64
2023/09/19 11:33:33;;;;;;;14.33;9.77;;;;;;;20.68;81.09;99646.03;1707405;84;25404;-63
2023/09/19 11:36:19;;;;;;;13.45;10.60;;;;;;;20.65;81.09;99646.84;1707242;84;25667;-65
2023/09/19 11:38:50;;;;;;;17.77;10.30;;;;;;;20.62;80.95;99651.74;1706952;84;27418;-66
2023/09/19 11:41:29;;;;;;;14.73;10.55;;;;;;;20.58;80.90;99654.25;1707200;84;25587;-65
2023/09/19 11:44:05;;;;;;;15.72;10.95;;;;;;;20.54;81.25;99654.26;1707237;84;25713;-65
2023/09/19 11:46:36;;;;;;;12.07;10.68;;;;;;;20.52;81.84;99656.61;1707163;84;25525;-65